Main page
METAR-TAF:

METAR-TAF

Airports :

Fayette Regional Air Center

La Grange, Texas, United States

latitude: 29-54-29N, longitude: 096-57-00W, elevation: 325 ft

Current weather observation

The report was made 27 minutes ago, at 17:15 UTC
Calm wind
Temperature 88°F
Humidity 66%
Pressure 29.91 in. Hg
Visibility: 10 miles
Scattered clouds at a height of 4100 ft

METAR: K3T5 151715Z AUTO 00000KT 10SM SCT041 31/24 A2991 RMK AO2 T03110237 $

Time: 12:42 (17:42 UTC)


TAF: missing

Weather observations and forecasts of more than 4000 airports (METAR and TAF reports).

The available stations are represented by yellow and red dots on the map.

Hover mouse over dot to see the name of the station.

Then click to see weather observations and forecasts.

To change the map : click on the green buttons with a black cross to zoom in, on the green button with a dash to zoom out, or on the green arrows for adjacent maps.


METAR-TAF: